Time;durP1;ratioP1;P1;durP2;ratioP2;P2;SDS_P1;SDS_P2;PMS_P1;PMS_P2;Temp;Humidity;BMP_temperature;BMP_pressure;BME280_temperature;BME280_humidity;BME280_pressure;Samples;Min_cycle;Max_cycle;Signal;HPM_P1;HPM_P2
2024/01/08 00:02:03;;;;;;;0.57;0.30;;;;;;;7.20;90.15;97414.56;5011672;28;20120;-67
2024/01/08 00:04:28;;;;;;;1.10;0.40;;;;;;;7.35;92.54;97435.50;4991230;28;20049;-64
2024/01/08 00:06:56;;;;;;;0.73;0.40;;;;;;;7.43;92.90;97435.53;4997856;28;20803;-66
2024/01/08 00:09:21;;;;;;;1.02;0.40;;;;;;;7.14;94.55;97400.47;5010237;28;20028;-66
2024/01/08 00:11:49;;;;;;;2.35;0.52;;;;;;;7.25;96.20;97427.84;5027366;28;20021;-67
2024/01/08 00:14:15;;;;;;;1.17;0.50;;;;;;;7.09;96.22;97392.34;5012335;28;20024;-64
2024/01/08 00:16:45;;;;;;;3.03;0.52;;;;;;;7.42;97.79;97439.88;5016628;28;20190;-68
2024/01/08 00:19:10;;;;;;;1.75;0.60;;;;;;;7.42;100.00;97431.31;5015595;28;20404;-69
2024/01/08 00:21:36;;;;;;;2.47;0.70;;;;;;;7.47;100.00;97418.75;5027639;28;20168;-67
2024/01/08 00:24:01;;;;;;;2.00;0.70;;;;;;;7.52;100.00;97437.22;5012660;28;20056;-69
2024/01/08 00:26:26;;;;;;;2.17;0.70;;;;;;;7.60;100.00;97436.44;5012293;28;20036;-66
2024/01/08 00:28:54;;;;;;;1.90;0.70;;;;;;;7.59;100.00;97434.81;5000700;28;20132;-67
2024/01/08 00:31:19;;;;;;;3.25;0.80;;;;;;;7.26;100.00;97406.97;5017297;28;20040;-64
2024/01/08 00:33:45;;;;;;;3.08;0.80;;;;;;;7.49;100.00;97433.13;5000457;28;20025;-65
2024/01/08 00:36:12;;;;;;;2.53;0.75;;;;;;;7.57;100.00;97431.56;5010643;28;20164;-67
2024/01/08 00:38:38;;;;;;;2.83;0.80;;;;;;;7.48;100.00;97431.53;5009629;28;20040;-63
2024/01/08 00:41:04;;;;;;;2.13;0.70;;;;;;;7.50;100.00;97434.78;5030100;28;20021;-64
2024/01/08 00:43:30;;;;;;;1.98;0.60;;;;;;;7.43;100.00;97428.59;4993106;28;20029;-61
2024/01/08 00:45:55;;;;;;;1.90;0.52;;;;;;;7.27;99.93;97400.84;5029420;28;20045;-65
2024/01/08 00:48:23;;;;;;;1.95;0.60;;;;;;;7.43;98.97;97436.34;5016408;28;20045;-68
2024/01/08 00:50:51;;;;;;;2.22;0.70;;;;;;;7.38;100.00;97430.03;5011959;28;20029;-65
2024/01/08 00:53:16;;;;;;;2.22;0.60;;;;;;;7.42;100.00;97423.56;5012066;28;20635;-63
2024/01/08 00:55:41;;;;;;;2.00;0.50;;;;;;;7.37;93.03;97420.63;5017200;28;20032;-66
2024/01/08 00:58:07;;;;;;;0.88;0.40;;;;;;;7.49;89.22;97440.09;5013350;28;20469;-67
2024/01/08 01:00:32;;;;;;;0.50;0.20;;;;;;;7.49;87.22;97447.84;5030777;28;20060;-65
2024/01/08 01:02:58;;;;;;;0.90;0.30;;;;;;;7.44;87.23;97447.50;5029698;28;20055;-66
2024/01/08 01:05:23;;;;;;;1.13;0.30;;;;;;;7.13;85.10;97397.06;5000330;28;20033;-66
2024/01/08 01:07:49;;;;;;;0.52;0.40;;;;;;;7.52;84.19;97444.97;5015519;28;20159;-65
2024/01/08 01:10:14;;;;;;;3.20;0.57;;;;;;;7.48;84.29;97443.63;5011175;28;20041;-64
2024/01/08 01:12:42;;;;;;;1.95;0.50;;;;;;;7.56;85.04;97456.63;5012315;28;20037;-65
2024/01/08 01:15:08;;;;;;;0.98;0.40;;;;;;;7.57;84.18;97457.44;5001439;28;20032;-66
2024/01/08 01:17:33;;;;;;;1.52;0.47;;;;;;;7.54;86.27;97458.56;4998787;28;20031;-67
2024/01/08 01:20:03;;;;;;;0.88;0.40;;;;;;;7.22;84.17;97412.63;5011271;28;20017;-66
2024/01/08 01:22:31;;;;;;;1.95;0.50;;;;;;;7.54;81.44;97458.56;4996988;28;20580;-64
2024/01/08 01:24:59;;;;;;;0.95;0.35;;;;;;;7.59;85.63;97463.25;5025061;28;20786;-64
2024/01/08 01:27:24;;;;;;;1.02;0.30;;;;;;;7.53;85.89;97456.91;5011258;28;20023;-65
2024/01/08 01:29:50;;;;;;;1.13;0.40;;;;;;;7.43;86.44;97466.56;5021614;28;20392;-64
2024/01/08 01:32:15;;;;;;;0.85;0.30;;;;;;;7.51;87.67;97469.19;5005243;28;20037;-66
2024/01/08 01:34:40;;;;;;;1.58;0.40;;;;;;;7.33;85.74;97427.88;5024237;28;20037;-67
2024/01/08 01:37:06;;;;;;;0.65;0.30;;;;;;;7.46;85.96;97474.00;5026635;28;20689;-63
2024/01/08 01:39:34;;;;;;;1.38;0.38;;;;;;;7.44;85.98;97466.41;5014337;28;20053;-62
2024/01/08 01:41:59;;;;;;;0.57;0.38;;;;;;;7.53;83.71;97469.84;5015822;28;20124;-63
2024/01/08 01:44:27;;;;;;;0.70;0.25;;;;;;;7.63;83.02;97467.97;5016347;28;20109;-66
2024/01/08 01:46:55;;;;;;;0.68;0.35;;;;;;;7.59;86.01;97476.19;5023958;28;20419;-64
2024/01/08 01:49:23;;;;;;;1.23;0.40;;;;;;;7.56;88.55;97474.72;5003829;28;21403;-68
2024/01/08 01:51:49;;;;;;;2.28;0.55;;;;;;;7.59;89.06;97481.38;5017777;28;20591;-66
2024/01/08 01:54:16;;;;;;;0.57;0.40;;;;;;;7.50;89.31;97491.69;5018022;28;20821;-64
2024/01/08 01:56:45;;;;;;;1.08;0.40;;;;;;;7.51;91.63;97489.91;5013942;28;20784;-65
2024/01/08 01:59:10;;;;;;;0.80;0.40;;;;;;;7.17;95.57;97441.50;5011976;28;20033;-64
2024/01/08 02:01:36;;;;;;;1.50;0.50;;;;;;;7.39;97.67;97497.09;5013271;28;20506;-64
2024/01/08 02:04:03;;;;;;;1.35;0.40;;;;;;;7.37;96.66;97498.22;5015425;28;20048;-64
2024/01/08 02:06:29;;;;;;;1.42;0.40;;;;;;;7.35;94.18;97500.94;5017164;28;20176;-64
2024/01/08 02:08:55;;;;;;;1.10;0.40;;;;;;;7.12;92.01;97460.06;5001555;28;20036;-65
2024/01/08 02:11:23;;;;;;;1.15;0.50;;;;;;;7.22;92.38;97449.63;5001890;28;20079;-65
2024/01/08 02:13:49;;;;;;;1.42;0.40;;;;;;;7.42;93.01;97483.06;5010951;28;20373;-65
2024/01/08 02:16:15;;;;;;;0.68;0.35;;;;;;;7.40;94.43;97503.88;5014969;28;20037;-64
2024/01/08 02:18:42;;;;;;;2.55;0.50;;;;;;;7.45;95.93;97491.31;4995221;28;20079;-66
2024/01/08 02:21:07;;;;;;;1.60;0.50;;;;;;;7.55;96.62;97508.50;5016510;28;20025;-64
2024/01/08 02:23:33;;;;;;;2.75;0.50;;;;;;;7.54;100.00;97494.78;5013210;28;20125;-67
2024/01/08 02:26:01;;;;;;;1.08;0.40;;;;;;;7.36;100.00;97500.00;5032397;28;20479;-65
2024/01/08 02:28:28;;;;;;;0.90;0.40;;;;;;;7.22;100.00;97488.41;5005950;28;20718;-64
2024/01/08 02:30:55;;;;;;;0.88;0.30;;;;;;;7.41;100.00;97494.34;5000115;28;20025;-67
2024/01/08 02:33:23;;;;;;;1.23;0.50;;;;;;;7.35;100.00;97493.19;5003353;28;20052;-63
2024/01/08 02:35:53;;;;;;;1.60;0.50;;;;;;;7.32;100.00;97498.69;5028623;28;20026;-64
2024/01/08 02:38:21;;;;;;;1.48;0.50;;;;;;;7.27;100.00;97495.72;5017102;28;20088;-65
2024/01/08 02:40:46;;;;;;;1.15;0.40;;;;;;;7.07;99.96;97448.56;5012457;28;20035;-65
2024/01/08 02:43:14;;;;;;;1.20;0.43;;;;;;;7.38;98.43;97490.31;5026178;28;20033;-67
2024/01/08 02:45:39;;;;;;;1.40;0.40;;;;;;;7.19;97.48;97454.28;5017435;28;20504;-65
2024/01/08 02:48:05;;;;;;;2.08;0.32;;;;;;;7.45;96.89;97480.16;5004334;28;20039;-64
2024/01/08 02:50:30;;;;;;;3.60;0.90;;;;;;;7.17;99.26;97448.47;5019148;28;20029;-67
2024/01/08 02:52:56;;;;;;;2.60;0.80;;;;;;;7.37;100.00;97493.03;5015718;28;20587;-64
2024/01/08 02:55:21;;;;;;;3.67;1.10;;;;;;;7.34;100.00;97506.25;5015628;28;20056;-65
2024/01/08 02:57:46;;;;;;;3.83;1.00;;;;;;;7.01;100.00;97449.16;5006739;28;20029;-64
2024/01/08 03:00:12;;;;;;;2.35;0.80;;;;;;;7.16;100.00;97485.63;5014531;28;20044;-66
2024/01/08 03:02:40;;;;;;;2.72;0.88;;;;;;;7.27;100.00;97486.19;5016740;28;20052;-63
2024/01/08 03:05:08;;;;;;;2.28;0.85;;;;;;;7.31;100.00;97497.03;4983616;28;20120;-63
2024/01/08 03:07:34;;;;;;;3.42;0.90;;;;;;;7.28;100.00;97498.16;4980255;28;20036;-66
2024/01/08 03:10:01;;;;;;;2.70;0.80;;;;;;;6.91;100.00;97442.31;5014350;28;20036;-66
2024/01/08 03:12:28;;;;;;;2.45;0.70;;;;;;;7.19;100.00;97487.91;4995032;28;20353;-67
2024/01/08 03:14:55;;;;;;;2.55;0.70;;;;;;;7.13;100.00;97489.31;5001377;28;20583;-68
2024/01/08 03:17:23;;;;;;;2.30;0.60;;;;;;;6.98;100.00;97452.06;4997808;28;20056;-63
2024/01/08 03:19:49;;;;;;;1.92;0.43;;;;;;;7.30;100.00;97491.06;4998834;28;20551;-66
2024/01/08 03:22:17;;;;;;;1.40;0.40;;;;;;;7.21;100.00;97480.78;4988480;28;20037;-68
2024/01/08 03:24:44;;;;;;;2.20;0.60;;;;;;;7.22;100.00;97488.41;5015957;28;20030;-68
2024/01/08 03:27:15;;;;;;;1.63;0.50;;;;;;;7.16;100.00;97489.03;4984612;28;20040;-68
2024/01/08 03:29:41;;;;;;;1.75;0.50;;;;;;;7.18;100.00;97491.47;4978137;28;20029;-64
2024/01/08 03:32:06;;;;;;;2.45;0.50;;;;;;;7.21;100.00;97488.56;5015045;28;20496;-63
2024/01/08 03:34:32;;;;;;;2.08;0.50;;;;;;;6.89;100.00;97441.63;4992271;28;20057;-66
2024/01/08 03:37:00;;;;;;;1.88;0.60;;;;;;;7.12;100.00;97491.09;4999342;28;20037;-66
2024/01/08 03:39:28;;;;;;;1.20;0.50;;;;;;;7.10;99.29;97490.44;5007320;28;20029;-64
2024/01/08 03:41:53;;;;;;;2.35;0.60;;;;;;;7.06;98.23;97467.59;4980540;28;20468;-65
2024/01/08 03:44:18;;;;;;;1.00;0.50;;;;;;;7.01;96.80;97460.31;4980463;28;20026;-67
2024/01/08 03:46:44;;;;;;;1.35;0.50;;;;;;;7.09;97.66;97493.97;4998460;28;20037;-65
2024/01/08 03:49:11;;;;;;;1.27;0.50;;;;;;;6.82;97.87;97444.97;4996885;28;20040;-63
2024/01/08 03:51:39;;;;;;;1.92;0.60;;;;;;;7.21;97.43;97493.72;5012466;28;20036;-67
2024/01/08 03:54:04;;;;;;;1.30;0.50;;;;;;;7.18;99.18;97492.25;4981162;28;20033;-68
2024/01/08 03:56:32;;;;;;;2.03;0.57;;;;;;;7.27;96.60;97501.69;4992183;28;20046;-63
2024/01/08 03:59:00;;;;;;;1.83;0.50;;;;;;;7.30;97.23;97501.41;4980650;28;20037;-65
2024/01/08 04:01:28;;;;;;;1.48;0.32;;;;;;;7.20;97.75;97505.03;4992236;28;20080;-67
2024/01/08 04:03:56;;;;;;;2.20;0.57;;;;;;;7.20;96.81;97498.09;5008880;28;20053;-66
2024/01/08 04:06:21;;;;;;;1.88;0.70;;;;;;;7.11;95.84;97473.16;5005495;28;20124;-66
2024/01/08 04:08:51;;;;;;;1.10;0.40;;;;;;;7.36;94.86;97515.50;5008719;28;20037;-65
2024/01/08 04:11:17;;;;;;;1.33;0.40;;;;;;;7.32;95.22;97517.59;5023608;28;20021;-66
2024/01/08 04:13:42;;;;;;;2.13;0.60;;;;;;;7.31;95.47;97522.91;5005981;28;20013;-65
2024/01/08 04:16:10;;;;;;;3.00;0.50;;;;;;;7.32;94.38;97524.53;5037302;28;20808;-64
2024/01/08 04:18:35;;;;;;;2.05;0.60;;;;;;;7.29;94.10;97525.63;5032075;28;20702;-63
2024/01/08 04:21:03;;;;;;;1.10;0.47;;;;;;;7.13;94.57;97503.03;5013831;28;20028;-64
2024/01/08 04:23:28;;;;;;;1.95;0.50;;;;;;;7.06;94.31;97483.94;5002122;28;20036;-69
2024/01/08 04:25:54;;;;;;;1.08;0.40;;;;;;;7.27;94.28;97524.16;5024605;28;20028;-66
2024/01/08 04:28:22;;;;;;;2.58;0.50;;;;;;;7.37;94.56;97532.63;4999314;28;20136;-65
2024/01/08 04:30:49;;;;;;;2.72;0.60;;;;;;;7.31;94.19;97521.13;5018623;28;20025;-64
2024/01/08 04:33:15;;;;;;;1.55;0.50;;;;;;;7.30;94.12;97534.19;5023289;28;20029;-65
2024/01/08 04:35:43;;;;;;;3.35;0.60;;;;;;;7.34;91.79;97522.59;5009718;28;20678;-65
2024/01/08 04:38:08;;;;;;;2.88;0.57;;;;;;;7.28;92.15;97512.84;5015489;28;20470;-66
2024/01/08 04:40:38;;;;;;;2.42;0.47;;;;;;;7.27;90.61;97524.16;5015145;28;20064;-66
2024/01/08 04:43:03;;;;;;;1.27;0.50;;;;;;;7.36;90.77;97531.03;4999477;28;20112;-67
2024/01/08 04:45:30;;;;;;;1.67;0.52;;;;;;;7.41;91.65;97528.81;5034257;28;20039;-69
2024/01/08 04:47:55;;;;;;;1.52;0.50;;;;;;;7.35;91.66;97531.16;4998431;28;20681;-66
2024/01/08 04:50:20;;;;;;;1.23;0.35;;;;;;;7.40;91.04;97536.72;5002638;28;20080;-67
2024/01/08 04:52:46;;;;;;;1.60;0.40;;;;;;;7.14;90.65;97493.53;5021915;28;20052;-67
2024/01/08 04:55:12;;;;;;;2.30;0.47;;;;;;;7.47;89.99;97538.53;5017273;28;20040;-66
2024/01/08 04:57:38;;;;;;;1.90;0.50;;;;;;;7.49;90.79;97530.63;5019588;28;20120;-64
2024/01/08 05:00:04;;;;;;;2.75;0.60;;;;;;;7.24;91.56;97489.06;5003005;28;20632;-64
2024/01/08 05:02:31;;;;;;;2.05;0.43;;;;;;;7.47;91.83;97529.97;5007422;28;20733;-65
2024/01/08 05:04:57;;;;;;;2.58;0.50;;;;;;;7.42;93.74;97542.53;5018351;28;20115;-65
2024/01/08 05:07:25;;;;;;;0.90;0.40;;;;;;;7.39;93.53;97541.06;5035023;28;20372;-63
2024/01/08 05:09:54;;;;;;;3.47;0.60;;;;;;;7.34;94.13;97547.63;5035098;28;20112;-65
2024/01/08 05:12:19;;;;;;;2.70;0.60;;;;;;;7.20;93.32;97539.47;5014858;28;20024;-63
2024/01/08 05:14:44;;;;;;;2.50;0.70;;;;;;;7.22;93.25;97541.91;5023862;28;20071;-63
2024/01/08 05:17:12;;;;;;;1.98;0.60;;;;;;;7.21;92.29;97541.09;5018279;28;20029;-64
2024/01/08 05:19:37;;;;;;;3.17;0.80;;;;;;;7.18;94.08;97536.22;5016486;28;20040;-65
2024/01/08 05:22:03;;;;;;;1.90;0.60;;;;;;;6.89;93.51;97495.09;4998908;28;20518;-68
2024/01/08 05:24:28;;;;;;;1.48;0.45;;;;;;;7.13;91.23;97546.19;5021631;28;20028;-65
2024/01/08 05:26:54;;;;;;;2.67;0.65;;;;;;;7.10;89.13;97543.88;5031411;28;20039;-66
2024/01/08 05:29:19;;;;;;;2.35;0.70;;;;;;;7.27;89.39;97550.03;5007756;28;20070;-67
2024/01/08 05:31:44;;;;;;;1.27;0.50;;;;;;;7.15;87.68;97551.22;5005013;28;20036;-64
2024/01/08 05:34:10;;;;;;;2.40;0.50;;;;;;;7.01;86.76;97514.59;5004243;28;20033;-65
2024/01/08 05:36:38;;;;;;;1.75;0.50;;;;;;;7.22;89.11;97547.06;5020855;28;20168;-65
2024/01/08 05:39:03;;;;;;;2.08;0.60;;;;;;;7.24;87.48;97548.53;5017571;28;20403;-66
2024/01/08 05:41:28;;;;;;;1.60;0.50;;;;;;;7.16;89.17;97551.06;5026378;28;20041;-67
2024/01/08 05:43:54;;;;;;;2.53;0.70;;;;;;;7.05;88.41;97525.44;5021007;28;20114;-67
2024/01/08 05:46:19;;;;;;;1.63;0.50;;;;;;;7.23;90.17;97556.47;5020146;28;20604;-63
2024/01/08 05:48:47;;;;;;;1.13;0.35;;;;;;;7.29;89.71;97561.84;5004412;28;20053;-64
2024/01/08 05:51:17;;;;;;;1.65;0.60;;;;;;;7.32;90.02;97564.13;5000362;28;20153;-68
2024/01/08 05:53:43;;;;;;;1.33;0.40;;;;;;;6.98;90.40;97529.59;4996246;28;20036;-67
2024/01/08 05:56:08;;;;;;;1.85;0.60;;;;;;;7.18;90.06;97569.81;5015871;28;20033;-67
2024/01/08 05:58:36;;;;;;;2.00;0.80;;;;;;;7.18;88.35;97563.84;5023122;28;20498;-66
2024/01/08 06:01:06;;;;;;;1.52;0.50;;;;;;;7.24;87.49;97573.59;5025071;28;20063;-66
2024/01/08 06:03:32;;;;;;;1.95;0.60;;;;;;;7.29;86.81;97579.13;5020679;28;20044;-64
2024/01/08 06:05:57;;;;;;;1.15;0.40;;;;;;;7.28;86.37;97574.91;5019828;28;20032;-63
2024/01/08 06:08:25;;;;;;;1.33;0.40;;;;;;;7.23;86.75;97577.16;4999442;28;20025;-63
2024/01/08 06:10:53;;;;;;;3.13;0.57;;;;;;;7.27;86.96;97586.22;5029096;28;20488;-64
2024/01/08 06:13:20;;;;;;;1.55;0.43;;;;;;;6.98;87.78;97548.47;5005179;28;20028;-68
2024/01/08 06:15:46;;;;;;;1.15;0.50;;;;;;;7.09;85.39;97555.22;5000012;28;20036;-64
2024/01/08 06:18:14;;;;;;;2.15;0.50;;;;;;;7.39;85.28;97597.13;5018561;28;20027;-64
2024/01/08 06:20:39;;;;;;;1.52;0.50;;;;;;;7.39;86.41;97597.97;5019259;28;20056;-66
2024/01/08 06:23:07;;;;;;;3.95;0.60;;;;;;;7.33;86.43;97598.56;5022819;28;20151;-64
2024/01/08 06:25:32;;;;;;;1.58;0.65;;;;;;;7.32;86.38;97602.91;5012683;28;20032;-69
2024/01/08 06:27:57;;;;;;;1.88;0.80;;;;;;;6.98;85.64;97550.25;5038286;28;20033;-67
2024/01/08 06:30:25;;;;;;;2.28;0.77;;;;;;;7.25;86.01;97604.47;4998787;28;20356;-65
2024/01/08 06:32:53;;;;;;;2.08;0.60;;;;;;;7.28;84.53;97598.19;5010872;28;20037;-66
2024/01/08 06:35:18;;;;;;;2.47;0.60;;;;;;;7.31;84.94;97597.88;5027748;28;20120;-66
2024/01/08 06:37:48;;;;;;;2.88;0.73;;;;;;;7.30;84.03;97604.00;5012882;28;20085;-67
2024/01/08 06:40:14;;;;;;;1.83;0.60;;;;;;;7.31;84.05;97600.47;5006369;28;20167;-64
2024/01/08 06:42:42;;;;;;;1.75;0.60;;;;;;;7.36;84.91;97598.25;5013371;28;20470;-69
2024/01/08 06:45:12;;;;;;;2.13;0.70;;;;;;;7.35;85.18;97598.41;5001388;28;20021;-64
2024/01/08 06:47:37;;;;;;;1.90;0.52;;;;;;;7.33;85.43;97614.06;4993185;28;20093;-66
2024/01/08 06:50:04;;;;;;;2.35;0.70;;;;;;;7.26;86.35;97608.66;5028781;28;20028;-64
2024/01/08 06:52:33;;;;;;;1.52;0.50;;;;;;;7.32;83.36;97610.69;4991513;28;20048;-66
2024/01/08 06:54:58;;;;;;;2.10;0.50;;;;;;;7.30;83.90;97609.19;5001926;28;20672;-66
2024/01/08 06:57:23;;;;;;;0.88;0.43;;;;;;;7.32;83.64;97610.69;5016716;28;20108;-68
2024/01/08 06:59:49;;;;;;;2.60;0.70;;;;;;;7.23;85.36;97608.19;5015177;28;21347;-62
2024/01/08 07:02:14;;;;;;;2.13;0.60;;;;;;;7.29;85.29;97620.50;5035467;28;20151;-64
2024/01/08 07:04:41;;;;;;;2.13;0.57;;;;;;;7.32;84.73;97622.81;5017586;28;20045;-68
2024/01/08 07:07:06;;;;;;;1.48;0.45;;;;;;;7.40;83.92;97633.19;5013675;28;20742;-68
2024/01/08 07:09:31;;;;;;;5.57;0.77;;;;;;;7.13;84.17;97587.53;5017831;28;20028;-66
2024/01/08 07:11:59;;;;;;;1.58;0.60;;;;;;;7.39;83.74;97636.75;5031540;28;20032;-63
2024/01/08 07:14:27;;;;;;;2.72;0.80;;;;;;;7.25;82.08;97626.94;5011003;28;20037;-62
2024/01/08 07:16:52;;;;;;;2.03;0.60;;;;;;;7.27;84.14;97637.94;5001084;28;20029;-66
2024/01/08 07:19:20;;;;;;;2.53;0.73;;;;;;;7.36;81.13;97634.47;5015224;28;20533;-64
2024/01/08 07:21:47;;;;;;;2.28;0.70;;;;;;;7.39;80.67;97643.69;5017249;28;20029;-66
2024/01/08 07:24:15;;;;;;;1.77;0.63;;;;;;;7.31;81.49;97637.47;5019882;28;20480;-67
2024/01/08 07:26:43;;;;;;;1.77;0.60;;;;;;;7.32;81.33;97643.50;4990837;28;20022;-67
2024/01/08 07:29:09;;;;;;;2.90;0.80;;;;;;;7.42;82.25;97651.16;5001418;28;20090;-64
2024/01/08 07:31:34;;;;;;;2.08;0.70;;;;;;;7.35;83.20;97638.00;5041399;28;20033;-62
2024/01/08 07:33:59;;;;;;;2.28;0.70;;;;;;;7.14;83.10;97599.53;5013074;28;20488;-66
2024/01/08 07:36:25;;;;;;;1.60;0.50;;;;;;;7.36;82.22;97649.19;4994348;28;20036;-62
2024/01/08 07:38:53;;;;;;;2.30;0.70;;;;;;;7.42;81.73;97667.50;5014921;28;20941;-64
2024/01/08 07:41:18;;;;;;;1.15;0.50;;;;;;;7.20;81.15;97629.16;5013905;28;20028;-65
2024/01/08 07:43:44;;;;;;;1.73;0.60;;;;;;;7.34;82.03;97667.44;5017247;28;20724;-65
2024/01/08 07:46:09;;;;;;;2.53;0.70;;;;;;;7.35;81.14;97669.03;4998736;28;20059;-66
2024/01/08 07:48:35;;;;;;;2.38;0.80;;;;;;;7.26;81.98;97652.63;5015985;28;20059;-65
2024/01/08 07:51:05;;;;;;;2.70;0.80;;;;;;;7.44;80.51;97683.66;5006349;28;20032;-64
2024/01/08 07:53:30;;;;;;;1.38;0.55;;;;;;;7.46;80.78;97671.41;5015744;28;20674;-65
2024/01/08 07:55:56;;;;;;;2.15;0.60;;;;;;;7.58;80.02;97687.53;5015311;28;20033;-64
2024/01/08 07:58:23;;;;;;;2.65;0.80;;;;;;;7.37;80.86;97653.38;4999017;28;20031;-66
2024/01/08 08:00:52;;;;;;;1.88;0.68;;;;;;;7.49;78.24;97678.88;5035070;28;20028;-64
2024/01/08 08:03:17;;;;;;;1.77;0.55;;;;;;;7.53;79.41;97694.91;5015664;28;20169;-68
2024/01/08 08:05:47;;;;;;;1.90;0.60;;;;;;;7.51;79.13;97684.72;5014594;28;20185;-63
2024/01/08 08:08:15;;;;;;;1.85;0.57;;;;;;;7.46;78.52;97688.69;5002194;28;20037;-64
2024/01/08 08:10:43;;;;;;;3.35;0.50;;;;;;;7.53;79.62;97694.09;5012806;28;20036;-65
2024/01/08 08:13:11;;;;;;;1.52;0.60;;;;;;;7.31;79.61;97659.94;5000209;28;20759;-66
2024/01/08 08:15:36;;;;;;;1.98;0.55;;;;;;;7.66;79.54;97705.69;5010652;28;20427;-66
2024/01/08 08:18:46;;;;;;;2.30;0.77;;;;;;;7.64;80.55;97707.63;5013629;28;20025;-65
2024/01/08 08:21:13;;;;;;;1.95;0.65;;;;;;;7.30;80.33;97666.06;5032042;28;20037;-64
2024/01/08 08:23:39;;;;;;;2.63;0.70;;;;;;;7.70;80.47;97721.72;5016614;28;20029;-66
2024/01/08 08:26:04;;;;;;;1.70;0.60;;;;;;;7.76;81.24;97728.94;5015347;28;20777;-64
2024/01/08 08:28:32;;;;;;;2.50;0.70;;;;;;;7.83;74.63;97723.94;5004160;28;20076;-63
2024/01/08 08:30:57;;;;;;;1.63;0.57;;;;;;;7.61;71.70;97681.22;5013466;28;20087;-65
2024/01/08 08:33:25;;;;;;;1.85;0.50;;;;;;;7.98;75.44;97738.00;5016869;28;20047;-64
2024/01/08 08:35:50;;;;;;;2.42;0.63;;;;;;;7.99;74.58;97738.81;5033319;28;20025;-67
2024/01/08 08:38:18;;;;;;;2.33;0.73;;;;;;;7.78;77.69;97708.88;5003834;28;20029;-64
2024/01/08 08:40:46;;;;;;;3.90;0.60;;;;;;;7.84;78.13;97735.94;5012834;28;20056;-66
2024/01/08 08:43:11;;;;;;;2.53;0.60;;;;;;;8.01;80.25;97757.59;5034862;28;20186;-66
2024/01/08 08:45:37;;;;;;;1.48;0.50;;;;;;;7.93;82.07;97752.34;5018067;28;20629;-64
2024/01/08 08:48:03;;;;;;;2.10;0.60;;;;;;;7.79;83.72;97751.91;5024507;28;20025;-65
2024/01/08 08:50:29;;;;;;;1.50;0.50;;;;;;;7.80;84.49;97748.34;5018777;28;20102;-66
2024/01/08 08:52:54;;;;;;;2.75;0.80;;;;;;;7.72;84.89;97763.81;5018677;28;20041;-65
2024/01/08 08:55:21;;;;;;;2.95;0.70;;;;;;;7.70;84.01;97757.97;5018155;28;20032;-65
2024/01/08 08:57:50;;;;;;;1.83;0.60;;;;;;;7.65;82.14;97768.75;5034095;28;20028;-63
2024/01/08 09:00:16;;;;;;;1.95;0.60;;;;;;;7.74;80.94;97763.66;5016186;28;20702;-67
2024/01/08 09:02:42;;;;;;;2.17;0.70;;;;;;;7.72;82.57;97779.34;5018893;28;20042;-63
2024/01/08 09:05:07;;;;;;;2.65;0.80;;;;;;;7.74;82.33;97777.44;5006382;28;20029;-64
2024/01/08 09:07:35;;;;;;;1.83;0.70;;;;;;;7.72;82.91;97781.09;5022279;28;20032;-64
2024/01/08 09:10:01;;;;;;;2.13;0.70;;;;;;;7.79;83.50;97777.78;5011672;28;20025;-62
2024/01/08 09:12:29;;;;;;;3.53;0.70;;;;;;;7.86;83.86;97781.41;5018491;28;20076;-67
2024/01/08 09:14:55;;;;;;;2.80;0.80;;;;;;;7.68;83.98;97746.94;5025853;28;20425;-67
2024/01/08 09:17:20;;;;;;;1.92;0.50;;;;;;;7.85;84.79;97800.50;5022386;28;20040;-67
2024/01/08 09:19:49;;;;;;;2.90;0.80;;;;;;;7.78;85.11;97798.66;5040381;28;20025;-67
2024/01/08 09:22:19;;;;;;;2.53;0.80;;;;;;;7.90;84.13;97802.63;5013587;28;20541;-67
2024/01/08 09:24:45;;;;;;;2.80;0.77;;;;;;;7.85;82.31;97800.50;5018530;28;20599;-68
2024/01/08 09:27:10;;;;;;;2.63;0.82;;;;;;;7.88;83.49;97810.56;5005628;28;20033;-67
2024/01/08 09:29:36;;;;;;;4.78;0.98;;;;;;;7.95;83.48;97813.38;4995563;28;20611;-67
2024/01/08 09:32:01;;;;;;;2.78;0.90;;;;;;;7.97;84.54;97819.19;5016906;28;20024;-67
2024/01/08 09:34:26;;;;;;;2.95;0.90;;;;;;;8.11;84.17;97822.25;5011819;28;20029;-68
2024/01/08 09:36:52;;;;;;;2.10;0.63;;;;;;;8.18;84.33;97825.88;5004609;28;20436;-65
2024/01/08 09:39:20;;;;;;;2.60;0.80;;;;;;;8.24;84.15;97820.09;5009331;28;20057;-68
2024/01/08 09:41:48;;;;;;;2.40;0.80;;;;;;;7.97;84.98;97782.16;5017275;28;20061;-66
2024/01/08 09:44:16;;;;;;;1.90;0.70;;;;;;;8.01;84.76;97799.00;4999603;28;20025;-66
2024/01/08 09:46:47;;;;;;;2.50;0.77;;;;;;;8.24;85.03;97820.09;5029448;28;20060;-68
2024/01/08 09:49:15;;;;;;;1.92;0.70;;;;;;;8.38;84.27;97831.72;5001061;28;20053;-67
2024/01/08 09:51:43;;;;;;;2.33;0.70;;;;;;;8.07;85.10;97796.66;5011134;28;20155;-68
2024/01/08 09:54:09;;;;;;;3.00;0.82;;;;;;;8.40;84.75;97840.97;5034306;28;20088;-66
2024/01/08 09:56:36;;;;;;;3.10;1.00;;;;;;;8.13;84.63;97792.66;5008185;28;20958;-67
2024/01/08 09:59:02;;;;;;;2.63;0.80;;;;;;;8.31;83.53;97851.41;5014270;28;20021;-65
2024/01/08 10:01:27;;;;;;;3.28;0.90;;;;;;;8.20;84.06;97842.88;5029778;28;20167;-66
2024/01/08 10:03:53;;;;;;;3.45;1.20;;;;;;;8.15;85.23;97849.47;5020945;28;20075;-67
2024/01/08 10:06:18;;;;;;;4.07;1.60;;;;;;;8.21;84.83;97843.69;5003385;28;20033;-68
2024/01/08 10:08:44;;;;;;;4.97;2.00;;;;;;;8.34;84.71;97851.94;5025524;28;20044;-67
2024/01/08 10:11:10;;;;;;;3.55;1.20;;;;;;;7.96;82.54;97802.06;5024650;28;20025;-67
2024/01/08 10:13:39;;;;;;;3.50;0.93;;;;;;;8.14;81.73;97840.91;5014292;28;20033;-66
2024/01/08 10:16:08;;;;;;;4.40;1.92;;;;;;;8.34;80.44;97845.91;5033838;28;20060;-66
2024/01/08 10:18:36;;;;;;;3.20;1.20;;;;;;;8.37;80.15;97853.41;5015842;28;20606;-67
2024/01/08 10:21:17;;;;;;;2.58;0.82;;;;;;;8.12;79.55;97806.56;5020659;28;20063;-66
2024/01/08 10:23:47;;;;;;;1.95;0.70;;;;;;;8.37;81.36;97853.41;5031716;28;20036;-66
2024/01/08 10:26:14;;;;;;;2.88;0.88;;;;;;;8.32;83.22;97853.81;5003349;28;20079;-66
2024/01/08 10:28:41;;;;;;;2.92;1.00;;;;;;;8.44;83.06;97841.50;5001085;28;20654;-66
2024/01/08 10:31:11;;;;;;;2.83;1.00;;;;;;;8.50;83.73;97847.84;5000772;28;20025;-68
2024/01/08 10:33:36;;;;;;;2.90;1.00;;;;;;;8.46;80.41;97849.94;5012837;28;20087;-69
2024/01/08 10:36:05;;;;;;;3.30;1.00;;;;;;;8.41;82.14;97842.56;5014748;28;20067;-69
2024/01/08 10:38:32;;;;;;;3.28;0.93;;;;;;;8.41;82.44;97839.97;4997269;28;20099;-68
2024/01/08 10:40:58;;;;;;;4.43;1.00;;;;;;;8.49;83.35;97843.63;5009332;28;20052;-66
2024/01/08 10:43:27;;;;;;;2.80;1.00;;;;;;;8.42;84.35;97843.44;5018770;28;20045;-68
2024/01/08 10:46:00;;;;;;;3.03;0.95;;;;;;;8.53;85.19;97850.97;5041215;28;20038;-65
2024/01/08 10:48:41;;;;;;;2.90;0.95;;;;;;;8.55;83.26;97851.63;5013958;28;20037;-71
2024/01/08 10:51:11;;;;;;;3.25;0.90;;;;;;;8.64;81.80;97855.09;5017026;28;20112;-67
2024/01/08 10:53:46;;;;;;;2.53;0.80;;;;;;;8.54;80.08;97846.59;4994001;28;20117;-68
2024/01/08 10:56:21;;;;;;;2.67;0.80;;;;;;;8.45;76.62;97854.31;5007642;28;20055;-68
2024/01/08 10:58:58;;;;;;;2.08;0.80;;;;;;;8.39;77.10;97846.28;4995037;28;20036;-64
2024/01/08 11:01:29;;;;;;;2.75;0.90;;;;;;;8.37;79.12;97841.25;4999367;28;20494;-64
2024/01/08 11:03:58;;;;;;;3.58;1.00;;;;;;;8.40;80.01;97843.53;5007579;28;20052;-66
2024/01/08 11:06:23;;;;;;;2.53;0.85;;;;;;;8.47;80.55;97846.41;5009630;28;21601;-67
2024/01/08 11:08:49;;;;;;;3.13;1.05;;;;;;;8.50;82.08;97846.06;5006516;28;20124;-68
2024/01/08 11:11:15;;;;;;;3.45;1.23;;;;;;;8.57;83.57;97847.09;5004172;28;22690;-67
2024/01/08 11:13:43;;;;;;;3.17;1.00;;;;;;;8.59;84.39;97842.56;5007075;28;20235;-69
2024/01/08 11:16:13;;;;;;;3.05;1.00;;;;;;;8.58;84.68;97834.94;5007534;28;20035;-67
2024/01/08 11:18:40;;;;;;;3.38;1.00;;;;;;;8.47;79.39;97828.25;5005605;28;20317;-70
2024/01/08 11:21:06;;;;;;;3.38;1.08;;;;;;;8.25;80.93;97796.66;4995616;28;20106;-66
2024/01/08 11:23:35;;;;;;;4.70;1.20;;;;;;;8.47;80.80;97841.22;5003028;28;20056;-65
2024/01/08 11:26:20;;;;;;;2.97;1.08;;;;;;;8.48;81.50;97840.22;5024174;28;20092;-66
2024/01/08 11:29:05;;;;;;;3.35;1.05;;;;;;;8.40;80.85;97830.59;5028083;28;20115;-69
2024/01/08 11:31:46;;;;;;;2.83;0.88;;;;;;;8.19;78.72;97792.03;5008018;28;20036;-67
2024/01/08 11:34:30;;;;;;;3.88;1.00;;;;;;;8.22;78.48;97799.53;5027615;28;20020;-66
2024/01/08 11:37:11;;;;;;;2.78;1.00;;;;;;;8.50;80.11;97838.31;5023474;28;20613;-67
2024/01/08 11:39:39;;;;;;;2.90;0.90;;;;;;;8.42;77.07;97833.06;5019187;28;20444;-68
2024/01/08 11:42:06;;;;;;;2.35;0.90;;;;;;;8.40;80.34;97829.78;5018864;28;20660;-66